Time;durP1;ratioP1;P1;durP2;ratioP2;P2;SDS_P1;SDS_P2;PMS_P1;PMS_P2;Temp;Humidity;BMP_temperature;BMP_pressure;BME280_temperature;BME280_humidity;BME280_pressure;Samples;Min_cycle;Max_cycle;Signal;HPM_P1;HPM_P2
2022/08/17 00:02:02;;;;;;;11.20;10.10;;;;;;;20.68;76.44;97533.13;4174643;28;20631;-91
2022/08/17 00:04:25;;;;;;;11.37;10.27;;;;;;;20.64;75.46;97526.53;4157275;28;20654;-88
2022/08/17 00:06:30;;;;;;;10.60;9.70;;;;;;;20.61;76.37;97526.03;4167589;28;20665;-88
2022/08/17 00:08:39;;;;;;;10.73;9.50;;;;;;;20.58;76.54;97521.94;4173808;28;20672;-89
2022/08/17 00:10:44;;;;;;;10.40;9.40;;;;;;;20.56;77.05;97526.59;4151678;28;20662;-89
2022/08/17 00:12:49;;;;;;;11.60;10.50;;;;;;;20.56;75.86;97523.94;4169276;28;20633;-87
2022/08/17 00:14:52;;;;;;;10.90;9.90;;;;;;;20.55;77.23;97519.66;4155529;28;20628;-89
2022/08/17 00:16:57;;;;;;;11.70;10.60;;;;;;;20.56;77.59;97518.63;4192599;28;20624;-87
2022/08/17 00:19:02;;;;;;;11.00;9.90;;;;;;;20.54;76.95;97517.19;4171205;28;20617;-89
2022/08/17 00:21:11;;;;;;;11.67;10.27;;;;;;;20.51;77.68;97521.00;4158055;28;20661;-88
2022/08/17 00:23:16;;;;;;;11.57;10.47;;;;;;;20.50;77.34;97514.06;4180219;28;20636;-88
2022/08/17 00:25:19;;;;;;;11.00;10.00;;;;;;;20.47;77.98;97509.09;4188636;28;21218;-88
2022/08/17 00:27:23;;;;;;;11.07;10.10;;;;;;;20.45;76.47;97515.59;4177471;28;20625;-89
2022/08/17 00:29:27;;;;;;;11.10;9.83;;;;;;;20.41;76.84;97512.47;4178639;28;20664;-87
2022/08/17 00:31:32;;;;;;;10.67;9.67;;;;;;;20.37;77.15;97513.84;4173816;28;20736;-88
2022/08/17 00:33:36;;;;;;;11.03;9.90;;;;;;;20.36;77.60;97514.03;4209719;28;20673;-88
2022/08/17 00:35:39;;;;;;;11.00;10.00;;;;;;;20.35;76.62;97515.03;4173834;28;20656;-88
2022/08/17 00:37:42;;;;;;;10.67;9.73;;;;;;;20.32;76.58;97510.09;4171948;28;20645;-88
2022/08/17 00:39:45;;;;;;;11.17;10.10;;;;;;;20.30;77.45;97505.97;4204872;28;20664;-88
2022/08/17 00:41:48;;;;;;;11.00;10.00;;;;;;;20.28;76.74;97511.44;4204709;28;21001;-88
2022/08/17 00:43:55;;;;;;;11.30;10.30;;;;;;;20.27;78.08;97504.50;4156147;28;21270;-89
2022/08/17 00:46:02;;;;;;;11.77;10.60;;;;;;;20.25;77.87;97506.53;4173846;28;20633;-89
2022/08/17 00:48:05;;;;;;;10.70;9.80;;;;;;;20.21;78.32;97505.22;4180920;28;20739;-89
2022/08/17 00:50:28;;;;;;;11.50;10.50;;;;;;;20.19;78.48;97501.09;4174563;28;20645;-89
2022/08/17 00:52:35;;;;;;;11.63;10.43;;;;;;;20.19;77.50;97501.09;4177217;28;20653;-89
2022/08/17 00:54:40;;;;;;;11.83;10.20;;;;;;;20.16;77.14;97494.34;4187955;28;20653;-88
2022/08/17 00:56:46;;;;;;;10.60;9.50;;;;;;;20.14;77.18;97500.81;4177514;28;20637;-88
2022/08/17 00:58:52;;;;;;;11.93;10.83;;;;;;;20.13;77.87;97499.16;4170003;28;20641;-89
2022/08/17 01:00:55;;;;;;;11.13;10.03;;;;;;;20.12;78.42;97500.19;4175207;28;20640;-88
2022/08/17 01:03:05;;;;;;;11.77;10.67;;;;;;;20.07;79.14;97497.22;4161492;28;20732;-88
2022/08/17 01:05:09;;;;;;;10.53;9.50;;;;;;;20.04;78.17;97495.75;4171813;28;20632;-88
2022/08/17 01:07:12;;;;;;;11.17;10.17;;;;;;;20.03;77.80;97498.59;4173261;28;20727;-87
2022/08/17 01:09:16;;;;;;;11.33;10.33;;;;;;;20.01;77.91;97495.28;4172941;28;20659;-88
2022/08/17 01:11:19;;;;;;;11.30;10.20;;;;;;;20.01;78.03;97495.28;4175231;28;20628;-87
2022/08/17 01:13:27;;;;;;;11.10;10.10;;;;;;;19.98;79.26;97496.47;4175205;28;20714;-89
2022/08/17 01:15:31;;;;;;;12.20;10.90;;;;;;;19.96;78.39;97502.94;4161550;28;20632;-89
2022/08/17 01:17:34;;;;;;;11.50;10.40;;;;;;;19.91;77.84;97500.00;4158851;28;20735;-86
2022/08/17 01:19:41;;;;;;;11.37;10.37;;;;;;;19.90;78.51;97498.34;4192152;28;21223;-87
2022/08/17 01:21:48;;;;;;;11.03;10.03;;;;;;;19.87;78.42;97496.03;4206625;28;20635;-88
2022/08/17 01:23:52;;;;;;;13.73;10.90;;;;;;;19.86;79.37;97497.06;4174462;28;20727;-89
2022/08/17 01:26:00;;;;;;;11.87;10.83;;;;;;;19.83;78.44;97495.56;4176534;28;20785;-88
2022/08/17 01:28:04;;;;;;;11.47;10.37;;;;;;;19.82;78.48;97487.78;4154619;28;20629;-88
2022/08/17 01:30:11;;;;;;;11.73;10.60;;;;;;;19.80;79.26;97489.78;4172497;28;20715;-88
2022/08/17 01:32:34;;;;;;;11.93;10.63;;;;;;;19.80;78.39;97492.44;4155977;28;21177;-89
2022/08/17 01:34:37;;;;;;;11.57;10.53;;;;;;;19.78;79.37;97488.31;4170683;28;20646;-89
2022/08/17 01:36:52;;;;;;;11.77;10.77;;;;;;;19.76;79.70;97480.53;4155378;28;20614;-88
2022/08/17 01:38:56;;;;;;;11.53;10.43;;;;;;;19.74;78.39;97495.78;4157168;28;20629;-88
2022/08/17 01:41:03;;;;;;;11.20;10.13;;;;;;;19.73;79.41;97488.84;4174112;28;20645;-89
2022/08/17 01:43:10;;;;;;;11.50;10.40;;;;;;;19.72;79.52;97486.38;4175949;28;21280;-89
2022/08/17 01:45:18;;;;;;;11.57;10.47;;;;;;;19.68;78.89;97490.34;4173505;28;21115;-89
2022/08/17 01:47:21;;;;;;;11.50;10.40;;;;;;;19.68;79.34;97488.53;4173781;28;20716;-89
2022/08/17 01:49:25;;;;;;;11.97;10.80;;;;;;;19.67;79.78;97494.81;4173042;28;20733;-88
2022/08/17 01:51:31;;;;;;;10.90;9.90;;;;;;;19.66;79.89;97495.00;4175022;28;20633;-89
2022/08/17 01:53:38;;;;;;;11.23;10.23;;;;;;;19.64;79.69;97492.53;4169618;28;20641;-88
2022/08/17 01:55:47;;;;;;;11.67;10.57;;;;;;;19.65;79.96;97499.47;4173220;28;20638;-88
2022/08/17 01:57:50;;;;;;;11.60;10.50;;;;;;;19.61;79.72;97500.81;4169438;28;21208;-88
2022/08/17 01:59:53;;;;;;;11.70;10.60;;;;;;;19.62;78.93;97497.19;4174455;28;20628;-88
2022/08/17 02:01:57;;;;;;;12.80;10.70;;;;;;;19.58;78.96;97498.53;4158331;28;20668;-88
2022/08/17 02:04:01;;;;;;;11.83;10.80;;;;;;;19.57;80.50;97499.50;4174169;28;20901;-88
2022/08/17 02:06:05;;;;;;;11.53;10.43;;;;;;;19.56;79.12;97505.81;4175744;28;21041;-88
2022/08/17 02:08:31;;;;;;;11.70;10.60;;;;;;;19.55;79.73;97504.16;4169091;28;20693;-88
2022/08/17 02:10:41;;;;;;;13.10;10.23;;;;;;;19.54;79.06;97506.97;4176527;28;20700;-88
2022/08/17 02:12:50;;;;;;;11.30;10.23;;;;;;;19.53;79.13;97498.22;4176559;28;20651;-87
2022/08/17 02:14:53;;;;;;;12.90;11.60;;;;;;;19.51;80.56;97502.84;4206841;28;20637;-88
2022/08/17 02:16:56;;;;;;;12.20;11.03;;;;;;;19.51;79.04;97502.03;4201647;28;20638;-87
2022/08/17 02:19:01;;;;;;;12.77;11.47;;;;;;;19.52;80.25;97493.09;4172470;28;20634;-85
2022/08/17 02:21:05;;;;;;;11.53;10.33;;;;;;;19.50;79.34;97493.28;4159570;28;20630;-86
2022/08/17 02:23:09;;;;;;;11.53;10.43;;;;;;;19.46;80.43;97489.31;4170106;28;20620;-87
2022/08/17 02:25:17;;;;;;;12.00;10.80;;;;;;;19.42;79.50;97492.50;4174464;28;20703;-87
2022/08/17 02:27:24;;;;;;;12.47;11.37;;;;;;;19.37;80.29;97487.72;4171695;28;20670;-85
2022/08/17 02:29:28;;;;;;;12.30;11.10;;;;;;;19.37;80.77;97494.03;4177030;28;20643;-87
2022/08/17 02:31:31;;;;;;;12.80;11.57;;;;;;;19.36;79.66;97498.47;4173258;28;21103;-86
2022/08/17 02:33:34;;;;;;;11.50;10.40;;;;;;;19.34;80.13;97495.19;4154984;28;20705;-87
2022/08/17 02:35:45;;;;;;;11.60;10.50;;;;;;;19.35;80.13;97493.34;4177681;28;20601;-86
2022/08/17 02:37:48;;;;;;;11.87;10.67;;;;;;;19.34;80.88;97489.09;4172878;28;22747;-88
2022/08/17 02:39:58;;;;;;;12.47;11.37;;;;;;;19.32;80.28;97497.19;4158853;28;20696;-85
2022/08/17 02:42:02;;;;;;;12.13;11.03;;;;;;;19.33;80.14;97505.94;4170865;28;21065;-87
2022/08/17 02:44:06;;;;;;;11.23;10.13;;;;;;;19.34;80.59;97504.97;4176057;28;20637;-87
2022/08/17 02:46:11;;;;;;;11.93;10.73;;;;;;;19.34;80.30;97508.41;4176526;28;21218;-86
2022/08/17 02:48:14;;;;;;;12.33;11.13;;;;;;;19.35;79.90;97510.06;4171749;28;20626;-87
2022/08/17 02:50:33;;;;;;;13.00;11.80;;;;;;;19.35;80.22;97510.06;4179362;28;20669;-87
2022/08/17 02:52:38;;;;;;;11.73;10.63;;;;;;;19.31;79.99;97510.59;4173012;28;20682;-86
2022/08/17 02:54:45;;;;;;;12.30;11.10;;;;;;;19.26;80.30;97512.91;4187383;28;20662;-87
2022/08/17 02:56:48;;;;;;;11.80;10.70;;;;;;;19.24;80.50;97515.72;4186650;28;20637;-87
2022/08/17 02:58:52;;;;;;;11.97;10.90;;;;;;;19.22;80.17;97517.72;4160170;28;21021;-86
2022/08/17 03:00:55;;;;;;;11.90;10.80;;;;;;;19.20;80.03;97516.22;4173451;28;20985;-86
2022/08/17 03:03:01;;;;;;;13.27;11.97;;;;;;;19.19;81.65;97511.97;4177485;28;20714;-87
2022/08/17 03:05:05;;;;;;;11.67;10.60;;;;;;;19.17;80.04;97513.94;4174597;28;20647;-86
2022/08/17 03:07:08;;;;;;;12.13;11.03;;;;;;;19.14;80.73;97516.91;4171402;28;20703;-85
2022/08/17 03:09:12;;;;;;;13.00;11.37;;;;;;;19.11;81.07;97511.97;4174022;28;20636;-85
2022/08/17 03:11:15;;;;;;;12.63;11.50;;;;;;;19.09;81.39;97509.53;4171450;28;20665;-84
2022/08/17 03:13:18;;;;;;;13.80;11.37;;;;;;;19.06;81.48;97506.38;4174959;28;20639;-85
2022/08/17 03:15:23;;;;;;;12.40;11.20;;;;;;;19.06;80.97;97516.97;4172229;28;20646;-87
2022/08/17 03:17:26;;;;;;;12.23;10.93;;;;;;;19.03;81.82;97514.66;4176055;28;21212;-85
2022/08/17 03:19:30;;;;;;;13.03;11.83;;;;;;;19.02;81.95;97518.31;4171605;28;21232;-85
2022/08/17 03:21:34;;;;;;;12.63;11.43;;;;;;;18.99;82.06;97524.72;4144127;28;20629;-85
2022/08/17 03:23:39;;;;;;;12.67;11.50;;;;;;;18.99;81.30;97521.25;4180972;28;20639;-84
2022/08/17 03:25:45;;;;;;;13.13;11.80;;;;;;;18.96;81.42;97525.06;4166800;28;20661;-85
2022/08/17 03:27:48;;;;;;;12.70;11.50;;;;;;;18.95;82.05;97519.94;4154041;28;21044;-85
2022/08/17 03:29:53;;;;;;;12.93;11.60;;;;;;;18.97;81.32;97524.06;4166918;28;20722;-85
2022/08/17 03:31:57;;;;;;;12.60;11.47;;;;;;;18.98;81.70;97530.19;4173450;28;20753;-86
2022/08/17 03:34:00;;;;;;;13.10;11.90;;;;;;;18.99;80.91;97526.56;4170361;28;20642;-85
2022/08/17 03:36:06;;;;;;;13.53;11.83;;;;;;;18.99;81.27;97529.19;4167921;28;20758;-86
2022/08/17 03:38:11;;;;;;;14.50;11.80;;;;;;;18.96;81.12;97530.34;4168456;28;20636;-85
2022/08/17 03:40:16;;;;;;;13.93;12.07;;;;;;;18.92;80.77;97531.66;4172323;28;20659;-84
2022/08/17 03:42:40;;;;;;;12.70;11.40;;;;;;;18.87;81.88;97532.34;4170459;28;20662;-85
2022/08/17 03:44:43;;;;;;;13.30;12.10;;;;;;;18.85;81.71;97524.59;4176009;28;20635;-85
2022/08/17 03:58:41;;;;;;;12.37;11.27;;;;;;;18.72;81.77;97528.75;4115911;28;21099;-88
2022/08/17 04:00:45;;;;;;;13.97;12.67;;;;;;;18.69;81.91;97529.09;4160399;28;20678;-87
2022/08/17 04:02:48;;;;;;;13.60;12.30;;;;;;;18.64;82.25;97534.91;4177545;28;20646;-87
2022/08/17 04:04:51;;;;;;;13.77;12.20;;;;;;;18.59;82.38;97523.16;4160809;28;20714;-88
2022/08/17 04:06:56;;;;;;;12.97;11.77;;;;;;;18.56;82.50;97531.44;4162265;28;20735;-87
2022/08/17 04:08:59;;;;;;;12.10;11.00;;;;;;;18.55;82.55;97543.81;4173314;28;20687;-88
2022/08/17 04:11:02;;;;;;;12.93;11.77;;;;;;;18.57;82.45;97538.38;4172018;28;20649;-88
2022/08/17 04:13:05;;;;;;;12.50;11.30;;;;;;;18.58;82.65;97535.56;4174732;28;20635;-87
2022/08/17 04:15:10;;;;;;;13.03;11.43;;;;;;;18.60;82.56;97536.22;4172073;28;20636;-87
2022/08/17 04:17:13;;;;;;;14.53;12.97;;;;;;;18.63;82.40;97537.69;4174043;28;20626;-87
2022/08/17 04:19:17;;;;;;;13.90;12.60;;;;;;;18.65;82.72;97541.00;4176872;28;20717;-88
2022/08/17 04:21:21;;;;;;;13.20;11.33;;;;;;;18.64;82.67;97542.81;4180204;28;20734;-87
2022/08/17 04:23:31;;;;;;;13.20;12.00;;;;;;;18.64;83.26;97548.09;4180634;28;20689;-88
2022/08/17 04:25:40;;;;;;;13.47;12.27;;;;;;;18.63;82.63;97553.56;4174560;28;20668;-88
2022/08/17 04:27:43;;;;;;;14.13;12.63;;;;;;;18.65;82.61;97560.31;4176360;28;21234;-87
2022/08/17 04:29:46;;;;;;;18.27;12.53;;;;;;;18.67;82.94;97554.84;4172454;28;20633;-87
2022/08/17 04:31:57;;;;;;;13.73;12.17;;;;;;;18.68;82.86;97567.09;4174899;28;20752;-88
2022/08/17 04:34:01;;;;;;;13.87;12.37;;;;;;;18.70;83.05;97583.59;4172309;28;20672;-88
2022/08/17 04:36:06;;;;;;;16.37;13.03;;;;;;;18.70;82.87;97581.78;4174064;28;20654;-87
2022/08/17 04:38:13;;;;;;;16.30;12.80;;;;;;;18.70;82.54;97584.44;4171350;28;20814;-87
2022/08/17 04:43:00;;;;;;;15.03;13.53;;;;;;;18.71;82.08;97586.06;4175504;28;21503;-87
2022/08/17 04:45:04;;;;;;;14.27;12.97;;;;;;;18.69;82.38;97585.41;4157985;28;20697;-87
2022/08/17 04:47:07;;;;;;;13.80;12.40;;;;;;;18.69;82.45;97588.06;4170496;28;20631;-87
2022/08/17 04:49:14;;;;;;;14.50;13.13;;;;;;;18.66;82.78;97587.56;4172736;28;20626;-86
2022/08/17 04:51:20;;;;;;;14.47;13.03;;;;;;;18.64;82.71;97594.81;4166093;28;20642;-87
2022/08/17 04:53:23;;;;;;;14.10;12.60;;;;;;;18.62;82.46;97602.09;4174108;28;20635;-89
2022/08/17 04:55:27;;;;;;;14.20;12.80;;;;;;;18.59;82.07;97597.97;4155719;28;21057;-89
2022/08/17 04:57:31;;;;;;;14.30;13.00;;;;;;;18.56;82.73;97603.56;4174349;28;21052;-89
2022/08/17 04:59:43;;;;;;;14.30;12.80;;;;;;;18.51;82.68;97603.25;4173795;28;20614;-88
2022/08/17 05:01:50;;;;;;;17.20;14.20;;;;;;;18.47;82.80;97601.91;4159492;28;20632;-89
2022/08/17 05:03:54;;;;;;;14.57;13.07;;;;;;;18.46;82.97;97616.13;4170533;28;21563;-87
2022/08/17 05:05:58;;;;;;;15.70;14.20;;;;;;;18.48;82.94;97629.19;4169598;28;20642;-86
2022/08/17 05:08:03;;;;;;;14.87;13.27;;;;;;;18.51;82.89;97637.59;4170539;28;20722;-85
2022/08/17 05:10:07;;;;;;;14.03;12.70;;;;;;;18.55;83.63;97641.56;4185539;28;21212;-86
2022/08/17 05:12:12;;;;;;;13.93;12.57;;;;;;;18.60;83.09;97646.34;4155938;28;20712;-85
2022/08/17 05:14:15;;;;;;;14.70;13.30;;;;;;;18.66;82.67;97646.53;4159332;28;20632;-86
2022/08/17 05:16:20;;;;;;;13.90;12.60;;;;;;;18.74;82.54;97638.56;4169222;28;20623;-84
2022/08/17 05:18:23;;;;;;;14.23;12.83;;;;;;;18.71;81.67;97646.84;4170415;28;20638;-87
2022/08/17 05:20:27;;;;;;;14.80;13.20;;;;;;;18.72;81.94;97656.44;4186894;28;20628;-84
2022/08/17 05:22:30;;;;;;;13.93;12.50;;;;;;;18.81;82.43;97660.72;4192895;28;21216;-83
2022/08/17 05:24:34;;;;;;;16.93;12.57;;;;;;;18.93;81.71;97654.94;4172884;28;20729;-84
2022/08/17 05:26:45;;;;;;;13.50;12.20;;;;;;;19.11;81.35;97657.41;4155616;28;20638;-85
2022/08/17 05:28:52;;;;;;;14.67;13.37;;;;;;;19.32;81.91;97660.34;4167834;28;20674;-85
2022/08/17 05:30:56;;;;;;;14.30;12.90;;;;;;;19.53;80.65;97656.13;4167615;28;20664;-84
2022/08/17 05:33:01;;;;;;;13.13;11.83;;;;;;;19.72;80.49;97659.22;4170695;28;20657;-86
2022/08/17 05:35:06;;;;;;;14.10;12.60;;;;;;;19.89;80.78;97658.19;4169035;28;20630;-85
2022/08/17 05:37:09;;;;;;;15.07;13.60;;;;;;;20.06;80.26;97655.28;4192510;28;20627;-85
2022/08/17 05:39:13;;;;;;;14.07;12.07;;;;;;;20.28;78.92;97638.59;4190672;28;21206;-84
2022/08/17 05:41:19;;;;;;;13.63;12.10;;;;;;;20.55;77.56;97638.06;4137751;28;1097546;-84
2022/08/17 05:43:24;;;;;;;15.00;12.13;;;;;;;20.80;77.86;97638.56;4172194;28;20287;-85
2022/08/17 05:45:28;;;;;;;13.70;12.40;;;;;;;21.06;77.24;97646.13;4210273;28;20641;-85
2022/08/17 05:47:52;;;;;;;13.67;12.37;;;;;;;21.35;77.41;97647.81;4173479;28;20695;-85
2022/08/17 05:49:55;;;;;;;13.50;12.10;;;;;;;21.60;75.93;97649.22;4173909;28;20704;-85
2022/08/17 05:52:17;;;;;;;12.67;11.40;;;;;;;21.88;75.10;97643.06;4175342;28;20646;-85
2022/08/17 05:54:30;;;;;;;11.60;10.50;;;;;;;22.22;73.96;97638.00;4170952;28;20724;-85
2022/08/17 05:56:56;;;;;;;12.20;11.00;;;;;;;22.49;73.25;97643.44;4171967;28;20643;-88
2022/08/17 05:59:07;;;;;;;11.03;9.93;;;;;;;22.72;72.37;97625.44;4189995;28;20627;-85
2022/08/17 06:01:19;;;;;;;13.23;10.83;;;;;;;23.04;72.01;97635.56;4157210;28;20643;-85
2022/08/17 06:03:33;;;;;;;11.40;10.40;;;;;;;23.22;71.05;97650.03;4170757;28;22486;-85
2022/08/17 06:06:01;;;;;;;12.50;11.23;;;;;;;23.41;70.27;97647.53;4171176;28;20642;-85
2022/08/17 06:08:12;;;;;;;12.53;11.37;;;;;;;23.57;70.78;97647.19;4168036;28;20671;-85
2022/08/17 06:10:22;;;;;;;11.67;10.63;;;;;;;23.64;69.32;97650.75;4151205;28;20628;-86
2022/08/17 06:12:37;;;;;;;12.80;11.60;;;;;;;23.78;68.97;97655.16;4173226;28;20651;-85
2022/08/17 06:14:58;;;;;;;13.03;11.57;;;;;;;23.93;69.28;97661.16;4169881;28;20694;-84
2022/08/17 06:17:10;;;;;;;12.80;11.60;;;;;;;24.13;69.83;97654.06;4174484;28;21223;-85
2022/08/17 06:19:16;;;;;;;12.60;11.47;;;;;;;24.35;69.28;97659.94;4175166;28;20686;-86
2022/08/17 06:21:20;;;;;;;11.70;10.60;;;;;;;24.55;67.89;97662.66;4204054;28;20633;-86
2022/08/17 06:23:36;;;;;;;11.03;9.93;;;;;;;24.77;67.25;97672.97;4190601;28;21225;-86
2022/08/17 06:25:49;;;;;;;11.60;10.60;;;;;;;25.09;65.78;97673.03;4186997;28;20619;-86
2022/08/17 06:27:55;;;;;;;11.20;10.20;;;;;;;25.27;65.63;97679.44;4171977;28;20671;-85
2022/08/17 06:30:07;;;;;;;11.60;10.60;;;;;;;25.36;65.64;97683.50;4176186;28;20675;-85
2022/08/17 06:32:13;;;;;;;12.10;11.00;;;;;;;25.51;66.24;97692.13;4178118;28;20648;-85
2022/08/17 06:34:17;;;;;;;14.20;10.70;;;;;;;25.58;66.30;97698.31;4173148;28;20712;-86
2022/08/17 06:36:32;;;;;;;11.90;10.90;;;;;;;25.57;65.64;97695.84;4171791;28;20678;-86
2022/08/17 06:38:42;;;;;;;12.23;11.13;;;;;;;25.61;65.51;97689.88;4169872;28;20633;-86
2022/08/17 06:41:01;;;;;;;10.90;10.00;;;;;;;25.81;65.36;97704.88;4175079;28;20989;-86
2022/08/17 06:43:13;;;;;;;11.57;10.50;;;;;;;26.00;65.15;97706.69;4170669;28;20714;-84
2022/08/17 06:45:21;;;;;;;11.13;10.03;;;;;;;26.20;64.81;97705.59;4203289;28;20715;-85
2022/08/17 06:47:30;;;;;;;11.63;10.53;;;;;;;26.40;63.76;97709.06;4177483;28;20616;-86
2022/08/17 06:49:40;;;;;;;11.97;9.40;;;;;;;26.62;62.80;97713.06;4162777;28;20643;-85
2022/08/17 06:51:47;;;;;;;9.90;9.00;;;;;;;26.74;63.60;97703.31;4168822;28;20715;-86
2022/08/17 06:53:53;;;;;;;10.67;9.77;;;;;;;26.79;63.03;97706.16;4173847;28;20654;-86
2022/08/17 06:55:59;;;;;;;10.37;9.37;;;;;;;26.94;63.34;97709.41;4172690;28;20670;-85
2022/08/17 06:58:06;;;;;;;11.70;10.50;;;;;;;27.20;62.47;97705.53;4169166;28;21044;-85
2022/08/17 07:00:21;;;;;;;21.40;19.23;;;;;;;27.40;63.00;97708.88;4169235;28;21226;-85
2022/08/17 07:02:36;;;;;;;11.30;10.30;;;;;;;27.45;61.93;97703.66;4167206;28;20674;-85
2022/08/17 07:04:55;;;;;;;10.17;9.27;;;;;;;27.39;61.94;97704.53;4177865;28;20757;-86
2022/08/17 07:08:00;;;;;;;10.30;9.27;;;;;;;27.36;62.26;97696.94;4171218;28;20640;-85
2022/08/17 07:09:30;;;;;;;9.83;8.93;;;;;;;27.63;61.84;97695.69;4187026;28;20620;-86
2022/08/17 07:11:38;;;;;;;9.97;9.07;;;;;;;27.94;60.89;97698.31;4153772;28;20642;-85
2022/08/17 07:13:45;;;;;;;10.57;9.50;;;;;;;28.11;60.65;97695.63;4170167;28;20656;-85
2022/08/17 07:15:59;;;;;;;10.17;9.17;;;;;;;28.15;59.74;97691.47;4171341;28;20735;-85
2022/08/17 07:18:04;;;;;;;9.60;8.80;;;;;;;28.16;60.12;97682.38;4154700;28;20660;-86
2022/08/17 07:20:10;;;;;;;9.20;8.20;;;;;;;28.26;58.96;97682.66;4185734;28;20728;-85
2022/08/17 07:22:21;;;;;;;9.83;8.90;;;;;;;28.52;58.97;97682.31;4176894;28;20633;-85
2022/08/17 07:24:34;;;;;;;9.60;8.60;;;;;;;28.82;59.13;97686.72;4168945;28;21175;-85
2022/08/17 07:26:38;;;;;;;8.70;7.80;;;;;;;29.01;57.81;97683.72;4174624;28;21266;-85
2022/08/17 07:28:43;;;;;;;10.43;8.13;;;;;;;29.13;58.37;97684.56;4199733;28;21081;-86
2022/08/17 07:30:50;;;;;;;9.13;8.23;;;;;;;29.26;56.53;97681.72;4170447;28;20667;-85
2022/08/17 07:32:56;;;;;;;10.13;8.27;;;;;;;29.42;56.38;97672.16;4159687;28;20984;-86
2022/08/17 07:35:13;;;;;;;8.20;7.40;;;;;;;29.59;56.06;97672.06;4172558;28;20676;-85
2022/08/17 07:37:19;;;;;;;8.50;7.60;;;;;;;29.73;56.06;97662.69;4163313;28;20667;-85
2022/08/17 07:39:26;;;;;;;9.63;8.03;;;;;;;29.97;55.00;97681.31;4169009;28;20623;-85
2022/08/17 07:41:34;;;;;;;8.37;7.57;;;;;;;30.09;54.76;97668.66;4172722;28;21055;-85
2022/08/17 07:43:57;;;;;;;8.03;7.30;;;;;;;29.95;54.55;97658.41;4184323;28;20659;-86
2022/08/17 07:48:25;;;;;;;8.70;7.90;;;;;;;29.80;55.23;97665.28;4173700;28;20679;-85
2022/08/17 07:50:30;;;;;;;8.63;7.33;;;;;;;29.98;55.05;97666.81;4173852;28;21313;-85
2022/08/17 07:52:33;;;;;;;8.67;7.87;;;;;;;30.21;55.00;97672.16;4172376;28;20679;-85
2022/08/17 07:54:54;;;;;;;8.70;7.87;;;;;;;30.42;54.73;97673.41;4167895;28;20634;-86
2022/08/17 07:57:00;;;;;;;12.53;7.30;;;;;;;30.59;54.38;97659.75;4175524;28;20641;-85
2022/08/17 07:59:11;;;;;;;9.83;7.80;;;;;;;30.73;53.06;97665.69;4177321;28;21078;-86
2022/08/17 08:01:17;;;;;;;8.33;7.53;;;;;;;30.67;52.75;97655.84;4154986;28;20636;-85
2022/08/17 08:03:25;;;;;;;8.80;7.87;;;;;;;30.78;53.76;97663.09;4170624;28;20735;-86
2022/08/17 08:05:31;;;;;;;8.43;7.53;;;;;;;30.90;53.34;97661.16;4157197;28;20639;-85
2022/08/17 08:07:54;;;;;;;8.27;7.57;;;;;;;31.05;54.13;97660.41;4161338;28;20652;-85
2022/08/17 08:10:04;;;;;;;8.70;7.80;;;;;;;31.18;53.74;97665.47;4175427;28;20626;-86
2022/08/17 08:12:32;;;;;;;8.13;7.47;;;;;;;31.27;52.12;97673.97;4199557;28;21522;-85
2022/08/17 08:14:38;;;;;;;8.47;7.77;;;;;;;31.34;52.91;97670.06;4202455;28;20670;-86
2022/08/17 08:16:56;;;;;;;9.00;8.30;;;;;;;31.30;51.54;97663.50;4174254;28;21187;-85
2022/08/17 08:19:01;;;;;;;8.23;7.43;;;;;;;31.27;53.24;97666.69;4172515;28;21312;-84
2022/08/17 08:21:08;;;;;;;10.73;9.73;;;;;;;31.27;53.48;97663.19;4172246;28;20650;-85
2022/08/17 08:23:18;;;;;;;8.10;7.40;;;;;;;31.28;53.48;97671.03;4171244;28;20737;-85
2022/08/17 08:25:25;;;;;;;8.13;7.43;;;;;;;31.19;53.66;97672.50;4157722;28;20720;-84
2022/08/17 08:27:47;;;;;;;7.53;6.83;;;;;;;31.02;53.51;97662.78;4192900;28;20650;-85
2022/08/17 08:29:53;;;;;;;8.13;7.43;;;;;;;30.83;54.13;97664.00;4171234;28;21432;-84
2022/08/17 08:32:03;;;;;;;8.80;8.00;;;;;;;30.66;53.86;97671.22;4171102;28;20736;-84
2022/08/17 08:34:11;;;;;;;8.33;7.67;;;;;;;30.54;54.31;97673.13;4169272;28;20666;-84
2022/08/17 08:36:45;;;;;;;8.07;7.37;;;;;;;30.41;54.56;97680.66;4172551;28;20636;-85
2022/08/17 08:39:13;;;;;;;7.80;7.10;;;;;;;30.26;54.62;97674.94;4167425;28;20666;-84
2022/08/17 08:41:25;;;;;;;8.00;7.13;;;;;;;30.07;54.28;97675.31;4174705;28;20705;-84
2022/08/17 08:43:34;;;;;;;8.20;7.43;;;;;;;29.89;55.34;97677.34;4172767;28;20648;-85
2022/08/17 08:45:46;;;;;;;8.60;7.73;;;;;;;29.72;54.73;97671.81;4172097;28;20647;-84
2022/08/17 08:48:04;;;;;;;9.00;8.20;;;;;;;29.60;55.39;97678.25;4175084;28;20620;-85
2022/08/17 08:50:24;;;;;;;7.60;6.90;;;;;;;29.46;55.51;97671.47;4176776;28;20630;-85
2022/08/17 08:52:52;;;;;;;7.60;6.90;;;;;;;29.38;56.04;97673.66;4170522;28;20690;-85
2022/08/17 08:55:01;;;;;;;8.07;7.37;;;;;;;29.35;55.74;97674.13;4161115;28;20641;-85
2022/08/17 08:57:14;;;;;;;8.93;8.03;;;;;;;29.27;56.39;97677.97;4175965;28;20633;-85
2022/08/17 08:59:35;;;;;;;9.77;7.30;;;;;;;29.20;56.24;97688.00;4171783;28;21165;-85
2022/08/17 09:01:52;;;;;;;14.13;8.57;;;;;;;29.11;56.98;97684.00;4175492;28;20626;-85
2022/08/17 09:04:17;;;;;;;11.20;8.30;;;;;;;29.08;56.62;97678.28;4175628;28;20640;-85
2022/08/17 09:06:38;;;;;;;9.60;8.60;;;;;;;29.04;57.28;97679.78;4175706;28;20703;-85
2022/08/17 09:08:54;;;;;;;8.60;7.80;;;;;;;29.02;56.46;97677.31;4175686;28;20659;-85
2022/08/17 09:11:03;;;;;;;7.90;7.10;;;;;;;29.05;56.68;97689.47;4174019;28;20661;-85
2022/08/17 09:13:19;;;;;;;7.80;7.10;;;;;;;29.09;57.03;97690.63;4169949;28;20652;-85
2022/08/17 09:15:26;;;;;;;9.90;7.63;;;;;;;29.13;57.32;97689.16;4189652;28;20660;-85
2022/08/17 09:17:35;;;;;;;8.30;7.10;;;;;;;29.09;57.27;97696.84;4173420;28;21287;-85
2022/08/17 09:19:42;;;;;;;8.27;7.40;;;;;;;29.07;57.09;97692.75;4174380;28;20675;-85
2022/08/17 09:21:51;;;;;;;8.07;7.27;;;;;;;29.00;56.70;97697.38;4169599;28;20646;-85
2022/08/17 09:24:03;;;;;;;8.20;7.50;;;;;;;28.97;57.12;97691.66;4175885;28;21297;-84
2022/08/17 09:26:13;;;;;;;7.83;7.10;;;;;;;28.88;56.92;97685.78;4166192;28;21211;-85
2022/08/17 09:28:19;;;;;;;9.10;6.97;;;;;;;28.77;55.93;97685.75;4174450;28;21163;-86
2022/08/17 09:30:23;;;;;;;8.10;7.30;;;;;;;28.69;56.84;97688.78;4177314;28;21069;-86
2022/08/17 09:32:31;;;;;;;7.70;7.03;;;;;;;28.69;57.40;97697.63;4177249;28;20640;-84
2022/08/17 09:34:38;;;;;;;7.53;6.50;;;;;;;28.73;56.85;97698.84;4173600;28;20655;-84
2022/08/17 09:36:50;;;;;;;8.00;7.23;;;;;;;28.77;57.36;97702.69;4191983;28;21186;-82
2022/08/17 09:39:00;;;;;;;7.77;6.90;;;;;;;28.80;57.41;97712.16;4176996;28;20629;-84
2022/08/17 09:41:14;;;;;;;8.50;6.77;;;;;;;28.81;57.21;97711.94;4170386;28;20718;-85
2022/08/17 09:43:24;;;;;;;7.17;6.57;;;;;;;28.83;57.32;97707.16;4171524;28;20639;-84
2022/08/17 09:45:31;;;;;;;7.40;6.70;;;;;;;28.83;56.52;97707.16;4171283;28;21009;-85
2022/08/17 09:47:40;;;;;;;6.83;6.27;;;;;;;28.85;57.29;97706.91;4154211;28;20651;-85
2022/08/17 09:49:47;;;;;;;7.50;6.80;;;;;;;28.83;56.20;97701.78;4173903;28;20704;-85
2022/08/17 09:51:54;;;;;;;8.23;7.03;;;;;;;28.87;57.22;97707.50;4154634;28;20704;-85
2022/08/17 09:53:59;;;;;;;6.67;6.07;;;;;;;28.86;56.80;97714.75;4169526;28;20629;-84
2022/08/17 09:56:30;;;;;;;6.83;6.23;;;;;;;28.79;56.51;97710.50;4176203;28;20628;-85
2022/08/17 09:58:43;;;;;;;7.43;6.60;;;;;;;28.74;56.51;97721.13;4155854;28;21234;-84
2022/08/17 10:00:55;;;;;;;6.60;6.00;;;;;;;28.72;55.96;97720.53;4175391;28;20671;-84
2022/08/17 10:03:16;;;;;;;7.10;6.40;;;;;;;28.67;56.80;97717.69;4181883;28;20651;-84
2022/08/17 10:05:22;;;;;;;6.23;5.73;;;;;;;28.72;57.35;97724.03;4192062;28;21193;-85
2022/08/17 10:07:29;;;;;;;6.43;5.83;;;;;;;28.81;56.27;97719.19;4163765;28;21265;-84
2022/08/17 10:09:44;;;;;;;7.40;6.73;;;;;;;28.84;56.81;97724.91;4147939;28;20755;-84
2022/08/17 10:14:17;;;;;;;7.00;6.30;;;;;;;28.95;56.70;97726.00;4173733;28;20625;-84